Decoded Metar for KDVL (DEVILS LAKE in ND, USA) (IATA:DVL) | Meteo·Mobile Aviation Weather
aviador You're here:

KDVL Decoded Metar

DEVILS LAKE in ND, USA
Report Time2018-11-18 01:56:00
UTC Time2018-11-18 02:37:10
Flight Rules mvfr MVFR
Wind250° at 14 kt
W.Decomp.*RWY 21: 11.7 kt HW 7.6 kt RCW
RWY 31: 5.5 kt HW 12.9 kt LCW
W.Rank250° ranks 19
Current wind is above 250° avg. (8.7)
Visibility9999 m
Phenomena:Light Snow
Clouds:Overcast 017 Hf
Expected CloudBase > 800 ft AGL from Temp-Dew spread
Ceiling1,700 ft
Temp-10°C (ISA -22)
Dew Point-12°C (85% RH)
AAT-18.2°C
QNH1025 hPa
Density Alt-1,673 ft
Elevation1,453 ft
Report Wrong Elevation
Raw Report
KDVL 180156Z AUTO 25014KT 9SM -SN OVC017 M10/M12 A3026 RMK AO2
SLP300 P0000 T11001122 FZRANO=

Extra information for KDVL:More info

Metar Taf Metar & Taf Last 4 Metars F.Rules Stats Wind Profile Meteogram Temp Stats Airport Information Weather charts Add Link Nearby VenuesMetar ALERT Operation Metar Decoded Social comments

AIRNAV info for KDVL